createdAt,value
2024-01-24T00:00:09.347Z,2.72
2024-01-24T00:02:39.635Z,3.53
2024-01-24T00:05:07.587Z,2.70
2024-01-24T00:07:34.681Z,3.35
2024-01-24T00:10:03.650Z,3.13
2024-01-24T00:12:30.717Z,2.42
2024-01-24T00:14:58.362Z,2.80
2024-01-24T00:17:25.466Z,3.13
2024-01-24T00:19:52.512Z,3.03
2024-01-24T00:22:19.557Z,2.88
2024-01-24T00:24:46.546Z,3.00
2024-01-24T00:27:13.755Z,2.50
2024-01-24T00:29:41.419Z,2.30
2024-01-24T00:32:08.418Z,2.80
2024-01-24T00:34:35.479Z,2.53
2024-01-24T00:37:02.546Z,2.22
2024-01-24T00:39:29.635Z,3.08
2024-01-24T00:41:59.461Z,2.35
2024-01-24T00:44:26.496Z,3.00
2024-01-24T00:46:53.557Z,2.60
2024-01-24T00:49:20.790Z,3.15
2024-01-24T00:51:47.981Z,2.70
2024-01-24T00:54:15.263Z,2.67
2024-01-24T00:56:42.418Z,2.80
2024-01-24T00:59:09.664Z,2.47
2024-01-24T01:01:36.875Z,2.65
2024-01-24T01:04:05.296Z,2.78
2024-01-24T01:06:32.423Z,2.47
2024-01-24T01:09:01.288Z,3.22
2024-01-24T01:11:28.778Z,2.28
2024-01-24T01:13:55.713Z,2.38
2024-01-24T01:16:22.812Z,2.75
2024-01-24T01:18:49.791Z,2.40
2024-01-24T01:21:17.002Z,2.50
2024-01-24T01:23:44.024Z,2.15
2024-01-24T01:26:10.989Z,1.83
2024-01-24T01:28:37.999Z,3.00
2024-01-24T01:31:05.390Z,2.80
2024-01-24T01:33:32.465Z,2.22
2024-01-24T01:36:09.220Z,2.30
2024-01-24T01:38:44.880Z,2.72
2024-01-24T01:41:12.485Z,2.30
2024-01-24T01:43:39.524Z,2.50
2024-01-24T01:46:20.260Z,3.72
2024-01-24T01:48:49.527Z,2.70
2024-01-24T01:51:23.307Z,3.27
2024-01-24T01:53:50.917Z,3.08
2024-01-24T01:56:21.004Z,2.30
2024-01-24T02:01:16.925Z,3.20
2024-01-24T02:03:48.344Z,2.45
2024-01-24T02:06:15.525Z,2.60
2024-01-24T02:08:44.853Z,2.40
2024-01-24T02:11:12.818Z,2.43
2024-01-24T02:13:39.863Z,2.90
2024-01-24T02:16:07.550Z,2.75
2024-01-24T02:18:34.618Z,2.20
2024-01-24T02:21:01.866Z,2.90
2024-01-24T02:23:31.281Z,3.65
2024-01-24T02:25:58.885Z,2.60
2024-01-24T02:28:26.042Z,3.08
2024-01-24T02:30:53.153Z,2.30
2024-01-24T02:33:20.519Z,2.75
2024-01-24T02:35:47.597Z,2.25
2024-01-24T02:38:14.609Z,2.58
2024-01-24T02:40:42.010Z,2.38
2024-01-24T02:43:08.946Z,2.13
2024-01-24T02:45:35.899Z,2.20
2024-01-24T02:48:02.993Z,2.30
2024-01-24T02:50:29.989Z,2.28
2024-01-24T02:52:56.928Z,2.38
2024-01-24T02:55:23.910Z,2.25
2024-01-24T02:57:51.008Z,1.95
2024-01-24T03:00:18.697Z,2.42
2024-01-24T03:02:45.633Z,2.33
2024-01-24T03:05:12.666Z,1.70
2024-01-24T03:07:42.114Z,2.20
2024-01-24T03:10:09.681Z,2.40
2024-01-24T03:12:37.020Z,2.55
2024-01-24T03:15:04.442Z,2.28
2024-01-24T03:17:31.436Z,1.88
2024-01-24T03:19:58.583Z,1.90
2024-01-24T03:22:26.241Z,2.80
2024-01-24T03:24:53.998Z,2.35
2024-01-24T03:27:21.151Z,2.40
2024-01-24T03:29:48.761Z,2.03
2024-01-24T03:32:16.187Z,2.05
2024-01-24T03:34:56.948Z,1.83
2024-01-24T03:37:24.486Z,2.22
2024-01-24T03:39:51.679Z,1.90
2024-01-24T03:42:19.376Z,2.40
2024-01-24T03:44:46.430Z,1.92
2024-01-24T03:47:13.442Z,1.95
2024-01-24T03:49:40.460Z,2.15
2024-01-24T03:52:07.512Z,2.00
2024-01-24T03:54:34.433Z,2.10
2024-01-24T03:57:01.648Z,2.22
2024-01-24T03:59:28.735Z,2.03
2024-01-24T04:01:55.826Z,2.28
2024-01-24T04:04:22.980Z,2.42
2024-01-24T04:06:50.144Z,2.00
2024-01-24T04:09:17.239Z,2.90
2024-01-24T04:11:44.210Z,2.40
2024-01-24T04:14:11.206Z,1.55
2024-01-24T04:16:41.178Z,1.77
2024-01-24T04:19:08.776Z,1.80
2024-01-24T04:21:44.258Z,1.88
2024-01-24T04:24:11.663Z,1.88
2024-01-24T04:26:39.161Z,1.83
2024-01-24T04:29:07.778Z,1.75
2024-01-24T04:31:35.415Z,2.03
2024-01-24T04:34:02.484Z,1.92
2024-01-24T04:36:29.670Z,1.35
2024-01-24T04:38:56.622Z,2.03
2024-01-24T04:41:23.697Z,2.50
2024-01-24T04:43:50.826Z,1.80
2024-01-24T04:46:18.029Z,2.13
2024-01-24T04:48:46.323Z,2.05
2024-01-24T04:51:13.584Z,1.85
2024-01-24T04:53:41.231Z,2.38
2024-01-24T04:56:08.894Z,2.25
2024-01-24T04:58:35.936Z,1.88
2024-01-24T05:01:03.603Z,1.88
2024-01-24T05:03:30.687Z,1.70
2024-01-24T05:06:04.431Z,1.88
2024-01-24T05:08:37.068Z,2.00
2024-01-24T05:11:05.264Z,1.90
2024-01-24T05:13:32.940Z,1.73
2024-01-24T05:16:00.495Z,1.50
2024-01-24T05:18:27.778Z,1.60
2024-01-24T05:20:54.926Z,1.83
2024-01-24T05:23:22.263Z,1.70
2024-01-24T05:25:49.389Z,1.80
2024-01-24T05:28:17.396Z,1.98
2024-01-24T05:30:44.463Z,2.20
2024-01-24T05:33:11.991Z,1.70
2024-01-24T05:35:39.196Z,4.13
2024-01-24T05:38:06.283Z,2.25
2024-01-24T05:40:33.440Z,1.70
2024-01-24T05:43:02.690Z,1.65
2024-01-24T05:45:29.783Z,1.53
2024-01-24T05:47:56.879Z,1.80
2024-01-24T05:50:23.993Z,1.60
2024-01-24T05:52:50.931Z,1.77
2024-01-24T05:55:17.987Z,1.88
2024-01-24T05:57:47.491Z,2.20
2024-01-24T06:00:16.005Z,1.38
2024-01-24T06:02:44.882Z,1.85
2024-01-24T06:05:13.197Z,2.10
2024-01-24T06:07:40.647Z,1.60
2024-01-24T06:10:08.619Z,1.85
2024-01-24T06:12:35.691Z,1.80
2024-01-24T06:15:03.770Z,1.60
2024-01-24T06:17:32.323Z,1.67
2024-01-24T06:20:01.189Z,1.77
2024-01-24T06:22:28.986Z,1.73
2024-01-24T06:24:57.928Z,1.77
2024-01-24T06:27:25.016Z,2.30
2024-01-24T06:30:17.317Z,1.60
2024-01-24T06:32:39.377Z,1.70
2024-01-24T06:35:09.024Z,2.15
2024-01-24T06:37:36.080Z,2.47
2024-01-24T06:40:04.293Z,1.80
2024-01-24T06:42:31.875Z,1.80
2024-01-24T06:44:59.036Z,1.70
2024-01-24T06:47:26.175Z,1.90
2024-01-24T06:49:53.237Z,1.60
2024-01-24T06:52:20.240Z,1.80
2024-01-24T06:54:47.274Z,1.40
2024-01-24T06:57:14.301Z,1.92
2024-01-24T06:59:41.460Z,1.70
2024-01-24T07:02:08.548Z,2.17
2024-01-24T07:04:35.811Z,1.25
2024-01-24T07:07:03.196Z,1.63
2024-01-24T07:09:30.385Z,1.38
2024-01-24T07:11:58.057Z,1.33
2024-01-24T07:14:25.813Z,1.50
2024-01-24T07:16:52.914Z,1.48
2024-01-24T07:19:20.104Z,1.40
2024-01-24T07:21:48.361Z,1.13
2024-01-24T07:24:17.769Z,1.55
2024-01-24T07:26:48.500Z,1.50
2024-01-24T07:29:16.707Z,1.40
2024-01-24T07:31:43.830Z,1.42
2024-01-24T07:34:12.927Z,1.50
2024-01-24T07:36:40.129Z,1.43
2024-01-24T07:39:07.917Z,2.20
2024-01-24T07:41:37.888Z,1.30
2024-01-24T07:44:05.372Z,1.52
2024-01-24T07:46:33.823Z,1.70
2024-01-24T07:49:01.392Z,1.73
2024-01-24T07:51:28.838Z,1.85
2024-01-24T07:53:58.101Z,1.55
2024-01-24T07:56:28.198Z,1.53
2024-01-24T08:01:23.094Z,1.75
2024-01-24T08:03:51.365Z,2.03
2024-01-24T08:06:19.586Z,2.17
2024-01-24T08:08:47.033Z,2.60
2024-01-24T08:11:14.256Z,2.20
2024-01-24T08:13:42.339Z,1.60
2024-01-24T08:16:11.410Z,2.63
2024-01-24T08:18:38.792Z,3.05
2024-01-24T08:21:08.756Z,3.20
2024-01-24T08:23:42.979Z,1.95
2024-01-24T08:26:18.022Z,1.98
2024-01-24T08:28:45.120Z,2.22
2024-01-24T08:31:15.561Z,2.38
2024-01-24T08:33:42.941Z,1.55
2024-01-24T08:36:10.402Z,1.45
2024-01-24T08:38:37.828Z,1.73
2024-01-24T08:41:05.406Z,1.92
2024-01-24T08:43:33.418Z,2.37
2024-01-24T08:46:01.023Z,1.65
2024-01-24T08:48:28.501Z,1.80
2024-01-24T08:50:55.935Z,1.80
2024-01-24T08:53:23.271Z,1.45
2024-01-24T08:55:50.853Z,1.20
2024-01-24T08:58:18.124Z,1.30
2024-01-24T09:00:46.525Z,1.40
2024-01-24T09:03:15.069Z,1.48
2024-01-24T09:06:16.511Z,1.48
2024-01-24T09:08:45.914Z,1.27
2024-01-24T09:11:14.372Z,1.58
2024-01-24T09:13:43.978Z,1.17
2024-01-24T09:16:11.404Z,2.33
2024-01-24T09:18:39.586Z,3.58
2024-01-24T09:21:07.008Z,7.25
2024-01-24T09:23:34.371Z,3.38
2024-01-24T09:26:04.122Z,5.43
2024-01-24T09:28:31.871Z,7.50
2024-01-24T09:30:59.191Z,4.70
2024-01-24T09:33:26.545Z,2.33
2024-01-24T09:35:54.063Z,2.78
2024-01-24T09:38:21.340Z,2.92
2024-01-24T09:40:48.795Z,4.25
2024-01-24T09:43:17.669Z,2.63
2024-01-24T09:45:45.826Z,2.85
2024-01-24T09:48:13.220Z,2.40
2024-01-24T09:50:41.437Z,1.50
2024-01-24T09:53:10.485Z,1.60
2024-01-24T09:55:38.442Z,1.80
2024-01-24T09:58:08.035Z,1.95
2024-01-24T10:00:36.701Z,3.35
2024-01-24T10:03:04.929Z,2.97
2024-01-24T10:05:36.778Z,1.88
2024-01-24T10:08:04.581Z,2.08
2024-01-24T10:10:31.701Z,5.20
2024-01-24T10:12:58.895Z,2.67
2024-01-24T10:15:26.203Z,5.70
2024-01-24T10:17:58.119Z,4.95
2024-01-24T10:20:26.034Z,1.80
2024-01-24T10:22:55.264Z,2.47
2024-01-24T10:25:23.258Z,1.40
2024-01-24T10:27:50.705Z,2.05
2024-01-24T10:30:18.614Z,1.38
2024-01-24T10:32:50.030Z,1.30
2024-01-24T10:35:17.877Z,1.48
2024-01-24T10:37:45.587Z,1.80
2024-01-24T10:40:16.855Z,1.27
2024-01-24T10:42:45.914Z,1.50
2024-01-24T10:45:14.247Z,1.60
2024-01-24T10:47:42.687Z,1.63
2024-01-24T10:50:18.746Z,1.55
2024-01-24T10:52:46.536Z,1.70
2024-01-24T10:55:14.787Z,1.98
2024-01-24T10:57:44.152Z,1.52
2024-01-24T11:00:14.481Z,1.70
2024-01-24T11:02:43.085Z,1.50
2024-01-24T11:05:25.645Z,1.13
2024-01-24T11:08:19.081Z,1.13
2024-01-24T11:10:47.610Z,2.50
2024-01-24T11:13:18.219Z,2.55
2024-01-24T11:15:46.755Z,3.00
2024-01-24T11:18:32.233Z,3.45
2024-01-24T11:21:01.449Z,3.60
2024-01-24T11:23:44.709Z,3.00
2024-01-24T11:26:18.439Z,2.60
2024-01-24T11:28:47.157Z,4.13
2024-01-24T11:31:15.483Z,1.90
2024-01-24T11:34:14.360Z,2.20
2024-01-24T11:36:52.134Z,3.65
2024-01-24T11:39:31.856Z,3.45
2024-01-24T11:42:35.338Z,2.22
2024-01-24T11:45:18.938Z,2.88
2024-01-24T11:47:47.061Z,2.10
2024-01-24T11:50:15.829Z,1.83
2024-01-24T11:52:43.950Z,1.65
2024-01-24T11:55:11.293Z,1.75
2024-01-24T11:57:38.549Z,1.83
2024-01-24T12:00:07.899Z,1.88
2024-01-24T12:02:36.223Z,1.85
2024-01-24T12:05:05.012Z,1.67
2024-01-24T12:07:32.124Z,1.90
2024-01-24T12:09:59.466Z,2.85
2024-01-24T12:12:28.671Z,3.13
2024-01-24T12:14:59.007Z,3.35
2024-01-24T12:17:26.599Z,2.38
2024-01-24T12:19:54.070Z,1.35
2024-01-24T12:22:21.888Z,1.88
2024-01-24T12:24:51.103Z,2.00
2024-01-24T12:27:18.778Z,2.83
2024-01-24T12:29:56.035Z,2.47
2024-01-24T12:32:23.635Z,1.90
2024-01-24T12:34:54.526Z,2.72
2024-01-24T12:37:22.999Z,2.58
2024-01-24T12:39:54.492Z,3.35
2024-01-24T12:42:21.929Z,2.90
2024-01-24T12:44:55.025Z,3.80
2024-01-24T12:47:23.478Z,2.65
2024-01-24T12:49:50.725Z,3.65
2024-01-24T12:52:18.373Z,2.78
2024-01-24T12:54:45.704Z,3.38
2024-01-24T12:57:12.823Z,3.80
2024-01-24T12:59:39.871Z,2.30
2024-01-24T13:02:10.736Z,2.70
2024-01-24T13:04:38.130Z,4.28
2024-01-24T13:07:06.118Z,2.97
2024-01-24T13:09:37.200Z,3.45
2024-01-24T13:12:09.803Z,3.28
2024-01-24T13:14:37.451Z,3.30
2024-01-24T13:17:06.322Z,3.25
2024-01-24T13:19:33.545Z,3.78
2024-01-24T13:22:01.049Z,3.20
2024-01-24T13:24:32.180Z,2.88
2024-01-24T13:26:59.635Z,2.63
2024-01-24T13:29:26.915Z,3.38
2024-01-24T13:31:54.203Z,3.38
2024-01-24T13:34:21.657Z,3.20
2024-01-24T13:36:49.119Z,3.60
2024-01-24T13:39:22.396Z,3.58
2024-01-24T13:41:51.049Z,3.55
2024-01-24T13:44:18.201Z,3.00
2024-01-24T13:46:45.535Z,3.58
2024-01-24T13:49:12.786Z,3.20
2024-01-24T13:51:43.333Z,3.42
2024-01-24T13:54:12.299Z,3.10
2024-01-24T13:56:39.545Z,3.70
2024-01-24T13:59:06.779Z,3.83
2024-01-24T14:01:36.332Z,3.55
2024-01-24T14:04:09.879Z,4.38
2024-01-24T14:06:37.667Z,3.55
2024-01-24T14:09:05.256Z,4.30
2024-01-24T14:11:32.537Z,4.00
2024-01-24T14:14:03.613Z,4.07
2024-01-24T14:16:30.854Z,3.53
2024-01-24T14:18:58.275Z,3.60
2024-01-24T14:21:25.700Z,3.72
2024-01-24T14:23:52.968Z,3.75
2024-01-24T14:26:20.098Z,3.63
2024-01-24T14:28:47.852Z,4.32
2024-01-24T14:31:15.132Z,4.57
2024-01-24T14:33:42.387Z,4.80
2024-01-24T14:36:09.709Z,4.72
2024-01-24T14:38:37.231Z,4.30
2024-01-24T14:41:04.553Z,4.50
2024-01-24T14:43:31.883Z,5.25
2024-01-24T14:45:59.217Z,4.68
2024-01-24T14:48:26.597Z,4.50
2024-01-24T14:50:53.820Z,4.60
2024-01-24T14:53:21.164Z,3.33
2024-01-24T14:55:48.250Z,5.40
2024-01-24T14:58:18.325Z,4.57
2024-01-24T15:00:48.413Z,4.25
2024-01-24T15:05:43.879Z,4.15
2024-01-24T15:08:11.005Z,4.20
2024-01-24T15:10:38.151Z,3.90
2024-01-24T15:13:05.622Z,4.22
2024-01-24T15:15:34.382Z,4.05
2024-01-24T15:18:01.717Z,4.95
2024-01-24T15:20:29.208Z,4.63
2024-01-24T15:22:56.372Z,4.20
2024-01-24T15:25:23.611Z,5.10
2024-01-24T15:27:51.057Z,5.38
2024-01-24T15:30:18.463Z,5.78
2024-01-24T15:32:46.212Z,6.25
2024-01-24T15:35:13.642Z,4.57
2024-01-24T15:37:40.911Z,6.30
2024-01-24T15:40:12.317Z,5.57
2024-01-24T15:42:43.177Z,4.60
2024-01-24T15:45:11.644Z,4.43
2024-01-24T15:47:39.562Z,4.25
2024-01-24T15:50:07.114Z,3.75
2024-01-24T15:52:35.462Z,3.40
2024-01-24T15:55:06.775Z,4.67
2024-01-24T15:57:34.078Z,4.45
2024-01-24T16:00:01.235Z,4.93
2024-01-24T16:02:30.300Z,5.75
2024-01-24T16:05:01.041Z,4.22
2024-01-24T16:07:28.746Z,6.30
2024-01-24T16:09:56.615Z,7.10
2024-01-24T16:12:26.284Z,8.65
2024-01-24T16:17:23.729Z,4.43
2024-01-24T16:19:53.985Z,4.53
2024-01-24T16:24:59.847Z,4.07
2024-01-24T16:27:27.017Z,3.85
2024-01-24T16:29:54.071Z,4.47
2024-01-24T16:32:21.369Z,9.07
2024-01-24T16:34:49.237Z,5.47
2024-01-24T16:37:16.565Z,5.47
2024-01-24T16:39:44.601Z,5.05
2024-01-24T16:42:11.862Z,4.68
2024-01-24T16:44:38.956Z,3.60
2024-01-24T16:47:07.747Z,4.10
2024-01-24T16:49:35.372Z,4.32
2024-01-24T16:52:02.948Z,4.13
2024-01-24T16:54:30.099Z,5.68
2024-01-24T16:56:57.135Z,5.05
2024-01-24T16:59:24.325Z,4.43
2024-01-24T17:01:51.386Z,5.07
2024-01-24T17:04:18.561Z,5.25
2024-01-24T17:06:46.272Z,5.65
2024-01-24T17:09:13.652Z,5.10
2024-01-24T17:11:40.751Z,5.53
2024-01-24T17:14:07.831Z,5.15
2024-01-24T17:16:36.872Z,4.97
2024-01-24T17:19:04.092Z,3.90
2024-01-24T17:21:32.817Z,5.13
2024-01-24T17:24:02.203Z,5.28
2024-01-24T17:26:29.757Z,5.55
2024-01-24T17:28:58.281Z,5.78
2024-01-24T17:31:27.408Z,4.82
2024-01-24T17:33:57.693Z,4.72
2024-01-24T17:36:24.944Z,6.05
2024-01-24T17:38:52.039Z,4.57
2024-01-24T17:41:19.120Z,4.07
2024-01-24T17:43:46.291Z,4.63
2024-01-24T17:46:13.454Z,4.35
2024-01-24T17:48:44.939Z,5.10
2024-01-24T17:51:15.179Z,4.55
2024-01-24T17:53:43.269Z,5.13
2024-01-24T17:56:12.495Z,4.22
2024-01-24T17:58:39.736Z,5.35
2024-01-24T18:01:06.967Z,4.55
2024-01-24T18:03:35.995Z,5.40
2024-01-24T18:06:03.401Z,4.75
2024-01-24T18:08:30.830Z,6.40
2024-01-24T18:10:58.630Z,7.00
2024-01-24T18:13:27.399Z,7.40
2024-01-24T18:15:56.325Z,8.10
2024-01-24T18:18:23.952Z,6.85
2024-01-24T18:20:54.942Z,6.15
2024-01-24T18:23:22.573Z,6.15
2024-01-24T18:25:50.941Z,6.70
2024-01-24T18:28:18.927Z,5.45
2024-01-24T18:30:46.837Z,6.00
2024-01-24T18:33:17.533Z,6.15
2024-01-24T18:35:48.613Z,5.68
2024-01-24T18:38:15.938Z,5.03
2024-01-24T18:40:43.459Z,4.50
2024-01-24T18:43:11.664Z,5.60
2024-01-24T18:45:38.981Z,4.57
2024-01-24T18:48:07.386Z,6.05
2024-01-24T18:50:34.717Z,5.97
2024-01-24T18:53:01.928Z,5.32
2024-01-24T18:55:29.517Z,6.28
2024-01-24T18:57:56.853Z,5.18
2024-01-24T19:00:24.315Z,5.93
2024-01-24T19:02:57.055Z,4.88
2024-01-24T19:05:33.927Z,5.28
2024-01-24T19:08:13.927Z,4.70
2024-01-24T19:10:41.604Z,4.82
2024-01-24T19:13:08.948Z,5.18
2024-01-24T19:15:36.393Z,5.07
2024-01-24T19:18:10.800Z,5.32
2024-01-24T19:20:42.175Z,5.35
2024-01-24T19:23:11.661Z,5.40
2024-01-24T19:25:41.845Z,5.18
2024-01-24T19:28:10.917Z,4.70
2024-01-24T19:30:38.256Z,5.75
2024-01-24T19:33:08.206Z,4.18
2024-01-24T19:35:36.162Z,5.18
2024-01-24T19:38:04.220Z,7.45
2024-01-24T19:40:32.552Z,6.32
2024-01-24T19:43:00.581Z,6.27
2024-01-24T19:45:27.921Z,5.57
2024-01-24T19:47:56.055Z,5.18
2024-01-24T19:50:28.187Z,5.03
2024-01-24T19:52:56.677Z,5.38
2024-01-24T19:55:24.998Z,6.55
2024-01-24T19:57:52.568Z,6.28
2024-01-24T20:00:20.316Z,5.50
2024-01-24T20:02:47.663Z,5.35
2024-01-24T20:05:15.383Z,7.03
2024-01-24T20:07:44.843Z,5.13
2024-01-24T20:10:12.580Z,5.85
2024-01-24T20:12:40.027Z,6.28
2024-01-24T20:15:08.560Z,5.45
2024-01-24T20:17:35.888Z,6.88
2024-01-24T20:20:03.957Z,6.28
2024-01-24T20:22:31.416Z,5.30
2024-01-24T20:25:14.596Z,5.65
2024-01-24T20:27:41.948Z,6.03
2024-01-24T20:30:09.604Z,5.32
2024-01-24T20:32:42.962Z,5.65
2024-01-24T20:35:16.581Z,5.03
2024-01-24T20:37:43.816Z,4.90
2024-01-24T20:40:11.790Z,6.03
2024-01-24T20:42:39.235Z,5.90
2024-01-24T20:45:07.155Z,6.03
2024-01-24T20:47:35.397Z,5.50
2024-01-24T20:50:03.202Z,5.38
2024-01-24T20:52:31.138Z,4.88
2024-01-24T20:54:58.563Z,5.28
2024-01-24T20:57:26.025Z,5.68
2024-01-24T20:59:54.611Z,6.68
2024-01-24T21:02:22.590Z,5.60
2024-01-24T21:04:50.407Z,6.50
2024-01-24T21:07:17.880Z,5.63
2024-01-24T21:09:45.151Z,5.78
2024-01-24T21:12:12.800Z,6.80
2024-01-24T21:14:40.199Z,5.30
2024-01-24T21:17:07.473Z,6.68
2024-01-24T21:19:34.863Z,6.70
2024-01-24T21:22:02.965Z,5.50
2024-01-24T21:24:30.433Z,5.45
2024-01-24T21:26:57.766Z,6.10
2024-01-24T21:29:24.968Z,6.95
2024-01-24T21:31:52.166Z,5.40
2024-01-24T21:34:19.510Z,5.97
2024-01-24T21:36:48.621Z,8.00
2024-01-24T21:41:47.932Z,6.28
2024-01-24T21:44:15.106Z,4.82
2024-01-24T21:46:42.237Z,5.55
2024-01-24T21:49:09.358Z,6.15
2024-01-24T21:51:37.414Z,5.72
2024-01-24T21:54:05.698Z,5.40
2024-01-24T21:56:33.479Z,5.53
2024-01-24T21:59:01.072Z,5.15
2024-01-24T22:01:34.739Z,5.10
2024-01-24T22:04:04.423Z,5.32
2024-01-24T22:06:34.601Z,5.30
2024-01-24T22:09:08.366Z,5.13
2024-01-24T22:11:42.338Z,4.72
2024-01-24T22:14:09.877Z,5.75
2024-01-24T22:16:42.637Z,5.65
2024-01-24T22:19:13.521Z,5.38
2024-01-24T22:21:45.846Z,5.63
2024-01-24T22:24:15.877Z,5.20
2024-01-24T22:26:45.839Z,5.10
2024-01-24T22:29:13.002Z,4.93
2024-01-24T22:31:48.781Z,5.63
2024-01-24T22:34:19.072Z,5.07
2024-01-24T22:36:46.333Z,5.18
2024-01-24T22:39:16.612Z,4.88
2024-01-24T22:41:46.801Z,5.20
2024-01-24T22:46:46.954Z,5.85
2024-01-24T22:51:41.412Z,5.13
2024-01-24T22:54:11.483Z,5.30
2024-01-24T22:56:38.534Z,6.60
2024-01-24T22:59:08.166Z,5.60
2024-01-24T23:01:35.263Z,6.38
2024-01-24T23:04:05.809Z,5.40
2024-01-24T23:06:33.066Z,6.18
2024-01-24T23:09:00.125Z,6.95
2024-01-24T23:11:27.201Z,5.30
2024-01-24T23:13:54.315Z,6.45
2024-01-24T23:16:21.551Z,6.20
2024-01-24T23:18:51.934Z,6.70
2024-01-24T23:21:19.085Z,6.70
2024-01-24T23:23:46.096Z,6.78
2024-01-24T23:26:13.049Z,5.80
2024-01-24T23:28:40.185Z,5.88
2024-01-24T23:31:08.284Z,5.50
2024-01-24T23:33:36.353Z,6.70
2024-01-24T23:36:09.606Z,5.80
2024-01-24T23:38:36.691Z,6.00
2024-01-24T23:41:03.882Z,7.55
2024-01-24T23:43:30.887Z,7.45
2024-01-24T23:45:58.147Z,6.97
2024-01-24T23:48:25.443Z,6.70
2024-01-24T23:50:52.576Z,8.27
2024-01-24T23:53:19.692Z,5.82
2024-01-24T23:55:50.582Z,7.07
2024-01-24T23:58:21.582Z,5.95
